Time;durP1;ratioP1;P1;durP2;ratioP2;P2;SDS_P1;SDS_P2;PMS_P1;PMS_P2;Temp;Humidity;BMP_temperature;BMP_pressure;BME280_temperature;BME280_humidity;BME280_pressure;Samples;Min_cycle;Max_cycle;Signal;HPM_P1;HPM_P2
2022/01/25 00:27:37;;;;;;;9.23;5.13;;;;;;;-7.04;86.99;95845.28;5071499;28;20179;-62
2022/01/25 00:30:21;;;;;;;7.93;4.50;;;;;;;-7.42;88.10;95819.69;5071184;28;20574;-66
2022/01/25 00:32:45;;;;;;;7.37;4.53;;;;;;;-7.47;89.42;95807.31;5071623;28;20288;-61
2022/01/25 00:35:10;;;;;;;9.93;5.40;;;;;;;-7.50;89.22;95808.97;5071523;28;20232;-67
2022/01/25 00:37:36;;;;;;;7.97;4.27;;;;;;;-7.45;89.90;95819.69;5071505;28;20648;-65
2022/01/25 00:40:03;;;;;;;11.00;5.27;;;;;;;-7.21;89.94;95803.25;5071260;28;20195;-59
2022/01/25 00:42:29;;;;;;;8.00;4.77;;;;;;;-6.97;88.37;95837.88;5053670;28;20205;-65
2022/01/25 00:44:55;;;;;;;10.73;4.97;;;;;;;-7.32;88.66;95813.94;5071321;28;20623;-61
2022/01/25 00:47:21;;;;;;;10.77;5.20;;;;;;;-7.26;89.86;95814.78;5069816;28;20650;-65
2022/01/25 00:49:52;;;;;;;8.50;5.17;;;;;;;-7.37;89.30;95804.03;5072401;28;20205;-63
2022/01/25 00:53:52;;;;;;;8.63;4.63;;;;;;;-7.53;89.91;95796.63;5075555;28;20176;-66
2022/01/25 00:55:07;;;;;;;8.80;5.10;;;;;;;-7.31;89.74;95799.13;5075333;28;20198;-65
2022/01/25 00:57:33;;;;;;;10.90;5.67;;;;;;;-7.27;89.05;95820.53;5075598;28;20178;-59
2022/01/25 00:59:58;;;;;;;11.87;5.40;;;;;;;-7.41;89.10;95804.06;5075138;28;20558;-63
2022/01/25 01:02:23;;;;;;;8.30;4.80;;;;;;;-7.50;90.36;95792.50;5075118;28;20166;-65
2022/01/25 01:04:49;;;;;;;9.37;5.57;;;;;;;-7.59;91.69;95784.28;5075044;28;20206;-65
2022/01/25 01:07:16;;;;;;;9.40;4.33;;;;;;;-7.56;91.50;95784.25;5074705;28;20170;-66
2022/01/25 01:09:45;;;;;;;9.77;5.33;;;;;;;-7.48;90.97;95792.50;5074923;28;20617;-62
2022/01/25 01:12:50;;;;;;;8.17;4.37;;;;;;;-7.38;92.11;95772.78;5057592;28;20233;-65
2022/01/25 01:29:10;;;;;;;9.90;5.10;;;;;;;-6.76;89.31;95795.06;5074716;28;20242;-59
2022/01/25 01:35:12;;;;;;;19.07;8.77;;;;;;;-6.28;87.38;95817.25;4992833;28;20800;-66
2022/01/25 01:47:52;;;;;;;40.90;18.73;;;;;;;-6.07;77.59;95920.31;5074130;28;20278;-62
2022/01/25 01:50:29;;;;;;;44.47;17.63;;;;;;;-6.05;76.97;95916.19;5079003;23;20314;-65
2022/01/25 01:52:56;;;;;;;35.93;16.97;;;;;;;-6.15;76.85;95914.53;5057584;28;20246;-60
2022/01/25 01:55:25;;;;;;;43.47;18.50;;;;;;;-6.23;77.44;95901.34;5074630;28;20516;-65
2022/01/25 01:57:58;;;;;;;31.47;14.53;;;;;;;-6.35;78.35;95869.19;5074090;28;20230;-60
2022/01/25 02:00:46;;;;;;;29.33;13.30;;;;;;;-6.95;83.37;95800.84;5073118;28;20564;-65
2022/01/25 02:03:13;;;;;;;18.97;9.63;;;;;;;-7.03;85.91;95766.22;5073727;28;20758;-66
2022/01/25 02:05:39;;;;;;;17.40;7.77;;;;;;;-6.83;86.09;95785.19;5073725;28;20569;-61
2022/01/25 02:08:06;;;;;;;19.07;8.27;;;;;;;-6.55;84.54;95806.59;5055968;28;20227;-66
2022/01/25 02:10:32;;;;;;;19.40;9.20;;;;;;;-6.47;84.30;95812.34;5073807;28;20341;-65
2022/01/25 02:12:58;;;;;;;22.60;10.97;;;;;;;-6.50;83.68;95802.44;5073815;28;20278;-59
2022/01/25 02:15:28;;;;;;;19.33;10.57;;;;;;;-6.42;84.43;95795.88;5073734;28;20608;-59
2022/01/25 02:22:23;;;;;;;30.43;14.20;;;;;;;-6.38;81.96;95832.94;5072430;28;20580;-65
2022/01/25 02:23:25;;;;;;;31.33;15.33;;;;;;;-6.54;79.42;95863.44;5073763;28;20287;-66
2022/01/25 02:25:54;;;;;;;45.37;21.93;;;;;;;-6.68;80.20;95837.06;5073419;28;20264;-65
2022/01/25 02:28:21;;;;;;;40.77;17.93;;;;;;;-6.60;81.99;95821.41;5073741;28;20255;-59
2022/01/25 02:30:46;;;;;;;49.23;21.83;;;;;;;-6.43;78.50;95878.28;5073298;28;20550;-61
2022/01/25 02:33:12;;;;;;;41.43;19.33;;;;;;;-6.65;78.09;95851.91;5073518;28;20286;-65
2022/01/25 02:35:40;;;;;;;29.03;14.63;;;;;;;-7.05;84.31;95767.88;5071983;28;20286;-63
2022/01/25 02:38:07;;;;;;;25.73;13.10;;;;;;;-6.82;84.23;95760.47;5073317;28;20741;-65
2022/01/25 02:40:33;;;;;;;25.07;12.60;;;;;;;-6.71;83.78;95768.69;5073319;28;20190;-61
2022/01/25 02:42:59;;;;;;;31.00;16.20;;;;;;;-6.73;81.72;95802.47;5071743;28;20207;-62
2022/01/25 02:45:31;;;;;;;36.40;16.73;;;;;;;-6.73;81.38;95809.91;5072952;28;20203;-59
2022/01/25 02:50:40;;;;;;;38.17;15.60;;;;;;;-6.63;78.24;95848.63;5073383;28;20191;-59
2022/01/25 02:53:06;;;;;;;43.53;18.93;;;;;;;-6.59;74.73;95901.34;5071544;28;20300;-65
2022/01/25 02:55:31;;;;;;;39.93;19.30;;;;;;;-6.85;75.07;95892.25;5072823;28;20283;-62
2022/01/25 02:57:57;;;;;;;40.33;18.87;;;;;;;-7.02;75.48;95876.56;5072891;28;20679;-59
2022/01/25 03:00:23;;;;;;;39.10;18.67;;;;;;;-7.20;76.61;95854.31;5072999;28;20187;-61
2022/01/25 03:02:48;;;;;;;48.37;19.70;;;;;;;-7.30;77.24;95840.28;5071166;28;20237;-61
2022/01/25 03:05:14;;;;;;;55.50;22.30;;;;;;;-7.41;77.54;95816.41;5071474;28;20203;-66
2022/01/25 03:07:40;;;;;;;46.70;21.20;;;;;;;-7.51;78.49;95802.38;5072845;28;20240;-59
2022/01/25 03:10:06;;;;;;;52.63;23.80;;;;;;;-7.58;81.12;95762.06;5072528;28;20178;-65
2022/01/25 03:12:40;;;;;;;50.17;23.10;;;;;;;-7.51;79.54;95792.53;5072137;28;20236;-62
2022/01/25 03:17:46;;;;;;;50.37;25.07;;;;;;;-7.73;80.36;95781.75;5072966;28;20194;-62
2022/01/25 03:20:19;;;;;;;53.03;23.10;;;;;;;-7.90;80.26;95775.94;5072624;28;20238;-61
2022/01/25 03:25:20;;;;;;;58.10;23.03;;;;;;;-7.79;79.13;95806.38;5072626;28;20206;-66
2022/01/25 03:27:46;;;;;;;62.30;24.13;;;;;;;-7.79;78.59;95806.38;5072337;28;20327;-60
2022/01/25 03:30:12;;;;;;;61.47;24.53;;;;;;;-7.82;78.36;95807.19;5071109;28;20231;-65
2022/01/25 03:32:37;;;;;;;56.30;22.87;;;;;;;-7.87;78.74;95798.13;5072134;28;20275;-59
2022/01/25 03:35:03;;;;;;;53.03;22.17;;;;;;;-7.95;78.73;95794.81;5072409;28;20582;-59
2022/01/25 03:37:28;;;;;;;45.63;21.27;;;;;;;-8.09;79.34;95792.31;5070544;28;20186;-60
2022/01/25 03:39:54;;;;;;;49.87;21.03;;;;;;;-8.33;81.46;95744.53;5072040;28;20169;-63
2022/01/25 03:42:20;;;;;;;44.20;18.73;;;;;;;-8.18;80.21;95774.19;5071821;28;20177;-65
2022/01/25 03:44:45;;;;;;;35.23;17.63;;;;;;;-8.12;80.42;95772.53;5071967;28;20288;-61
2022/01/25 03:47:15;;;;;;;40.97;16.87;;;;;;;-8.17;80.28;95758.56;5070406;28;20193;-62
2022/01/25 03:49:51;;;;;;;40.30;16.37;;;;;;;-8.34;82.13;95719.06;5072084;28;20224;-64
2022/01/25 03:52:27;;;;;;;40.53;16.57;;;;;;;-8.20;81.85;95729.78;5071938;28;20503;-64
2022/01/25 03:54:53;;;;;;;36.07;17.43;;;;;;;-8.20;81.14;95747.03;5072075;28;20508;-63
2022/01/25 03:57:18;;;;;;;37.60;17.10;;;;;;;-8.12;80.90;95752.81;5071613;28;20188;-65
2022/01/25 03:59:45;;;;;;;36.57;16.07;;;;;;;-8.10;81.33;95730.66;5071764;28;20579;-60
2022/01/25 04:02:11;;;;;;;37.03;15.67;;;;;;;-7.96;80.50;95753.72;5070022;28;20268;-64
2022/01/25 04:04:37;;;;;;;36.43;15.97;;;;;;;-7.83;79.51;95775.13;5071118;28;20696;-60
2022/01/25 04:07:09;;;;;;;35.30;17.23;;;;;;;-7.91;80.55;95754.53;5071575;28;20206;-60
2022/01/25 04:09:34;;;;;;;38.50;16.43;;;;;;;-7.76;80.51;95760.34;5071341;28;20208;-60
2022/01/25 04:12:01;;;;;;;39.40;16.43;;;;;;;-7.75;79.47;95768.56;5070242;28;20181;-60
2022/01/25 04:14:28;;;;;;;35.50;16.53;;;;;;;-7.66;80.03;95763.69;5071948;28;20276;-65
2022/01/25 04:17:06;;;;;;;34.23;15.43;;;;;;;-7.64;80.79;95753.81;5072044;28;20699;-61
2022/01/25 04:19:44;;;;;;;32.73;15.03;;;;;;;-7.56;80.09;95742.31;5070479;28;20212;-65
2022/01/25 04:27:28;;;;;;;30.23;14.57;;;;;;;-7.66;82.44;95706.94;5071201;28;20219;-61
2022/01/25 04:29:53;;;;;;;26.33;12.67;;;;;;;-7.48;82.01;95718.47;5071509;28;20182;-59
2022/01/25 04:32:23;;;;;;;26.93;14.03;;;;;;;-7.46;82.70;95707.78;5069868;28;20232;-64
2022/01/25 04:48:56;;;;;;;23.00;9.33;;;;;;;-7.66;87.88;95654.28;5071669;28;20324;-66
2022/01/25 04:54:07;;;;;;;19.97;8.60;;;;;;;-8.21;94.93;95655.81;5071747;28;20564;-61
2022/01/25 05:02:07;;;;;;;16.07;7.97;;;;;;;-9.08;99.84;95662.03;5071967;28;20170;-61
2022/01/25 05:04:41;;;;;;;18.07;8.40;;;;;;;-9.12;100.00;95662.84;5072237;28;20231;-62
2022/01/25 05:07:19;;;;;;;14.73;7.23;;;;;;;-9.12;100.00;95657.91;5054833;28;20185;-66
2022/01/25 05:09:47;;;;;;;20.77;7.97;;;;;;;-9.23;100.00;95669.31;5070305;28;20176;-67
2022/01/25 05:12:13;;;;;;;15.07;6.57;;;;;;;-9.08;100.00;95678.44;5072358;28;20612;-67
2022/01/25 05:14:56;;;;;;;17.30;8.83;;;;;;;-9.28;100.00;95667.63;5071896;28;20209;-62
2022/01/25 05:17:30;;;;;;;17.27;9.50;;;;;;;-9.34;100.00;95652.81;5070358;28;20185;-67
2022/01/25 05:24:48;;;;;;;14.67;7.20;;;;;;;-9.21;100.00;95666.88;5072233;28;20228;-66
2022/01/25 05:27:29;;;;;;;16.20;8.90;;;;;;;-9.37;100.00;95667.59;5071800;28;20173;-68
2022/01/25 05:29:54;;;;;;;17.53;7.93;;;;;;;-9.39;100.00;95661.81;5070527;28;20288;-65
2022/01/25 05:32:20;;;;;;;16.43;7.47;;;;;;;-9.49;100.00;95669.13;5070134;28;20207;-61
2022/01/25 05:34:46;;;;;;;23.80;9.43;;;;;;;-9.49;100.00;95648.59;5071103;28;20204;-61
2022/01/25 05:37:11;;;;;;;20.23;10.53;;;;;;;-9.48;100.00;95645.34;5075438;28;20196;-67
2022/01/25 05:39:37;;;;;;;16.40;9.10;;;;;;;-9.42;100.00;95647.84;5075334;28;20212;-62
2022/01/25 05:47:18;;;;;;;20.90;10.33;;;;;;;-9.24;100.00;95645.53;5075251;28;20181;-66
2022/01/25 05:49:45;;;;;;;19.97;10.23;;;;;;;-9.23;100.00;95644.69;5074178;28;20216;-67
2022/01/25 05:52:11;;;;;;;15.40;8.30;;;;;;;-9.33;100.00;95635.59;5074886;28;20670;-66
2022/01/25 05:54:38;;;;;;;15.67;7.80;;;;;;;-9.37;100.00;95638.06;5073390;28;20213;-66
2022/01/25 05:57:06;;;;;;;17.10;8.03;;;;;;;-9.33;100.00;95647.09;5074629;28;20184;-68
2022/01/25 05:59:37;;;;;;;17.80;7.87;;;;;;;-9.36;100.00;95645.44;5073773;28;20563;-61
2022/01/25 06:02:04;;;;;;;12.57;5.83;;;;;;;-9.51;100.00;95655.16;5073563;28;20254;-59
2022/01/25 06:04:30;;;;;;;18.57;8.20;;;;;;;-9.41;100.00;95656.88;5073144;28;20205;-61
2022/01/25 06:06:56;;;;;;;13.97;7.23;;;;;;;-9.40;100.00;95670.00;5074422;28;20177;-60
2022/01/25 06:09:24;;;;;;;15.97;8.50;;;;;;;-9.27;100.00;95666.84;5056488;28;20592;-62
2022/01/25 06:11:54;;;;;;;16.53;9.10;;;;;;;-9.02;100.00;95664.53;5072883;28;20183;-60
2022/01/25 06:14:21;;;;;;;18.00;9.50;;;;;;;-8.66;100.00;95681.13;5074361;28;20687;-62
2022/01/25 06:16:47;;;;;;;20.30;7.83;;;;;;;-8.69;97.56;95691.81;5074108;28;20205;-66
2022/01/25 06:19:12;;;;;;;15.77;8.23;;;;;;;-8.62;97.58;95681.16;5078870;23;20262;-66
2022/01/25 06:21:38;;;;;;;15.20;7.37;;;;;;;-8.69;96.93;95677.03;5074176;28;20185;-66
2022/01/25 06:24:04;;;;;;;15.70;8.67;;;;;;;-8.74;96.10;95698.34;5073988;28;20201;-67
2022/01/25 06:26:30;;;;;;;15.63;6.37;;;;;;;-8.92;97.69;95671.16;5073552;28;20655;-68
2022/01/25 06:28:55;;;;;;;12.53;7.43;;;;;;;-9.29;98.61;95669.25;5074144;28;20545;-66
2022/01/25 06:31:21;;;;;;;19.10;9.07;;;;;;;-9.33;100.00;95655.28;5073632;28;20177;-61
2022/01/25 06:33:48;;;;;;;17.27;9.50;;;;;;;-9.38;100.00;95661.84;5074122;28;20280;-58
2022/01/25 06:36:14;;;;;;;22.70;8.47;;;;;;;-9.41;100.00;95664.25;5074120;28;20210;-61
2022/01/25 06:38:39;;;;;;;17.33;7.90;;;;;;;-9.33;100.00;95667.59;5073912;28;20216;-58
2022/01/25 06:41:12;;;;;;;18.17;9.73;;;;;;;-9.31;99.76;95673.34;5071964;28;20177;-61
2022/01/25 06:43:38;;;;;;;18.93;10.30;;;;;;;-9.27;99.68;95681.59;5072045;28;20717;-59
2022/01/25 06:46:04;;;;;;;16.87;8.90;;;;;;;-9.07;100.00;95677.63;5072656;28;20662;-65
2022/01/25 06:48:31;;;;;;;20.70;9.73;;;;;;;-9.02;98.85;95679.31;5073425;28;20664;-62
2022/01/25 06:50:58;;;;;;;21.50;9.40;;;;;;;-8.90;97.88;95667.06;5071713;28;20182;-63
2022/01/25 06:53:24;;;;;;;18.97;8.73;;;;;;;-8.95;97.94;95668.69;5071973;28;20274;-66
2022/01/25 06:55:49;;;;;;;19.57;9.60;;;;;;;-8.94;97.56;95675.25;5071776;28;20300;-65
2022/01/25 06:58:15;;;;;;;18.73;8.47;;;;;;;-8.81;96.97;95664.66;5073306;28;20734;-66
2022/01/25 07:00:41;;;;;;;20.23;9.60;;;;;;;-8.71;97.02;95661.44;5073075;28;20219;-61
2022/01/25 07:03:06;;;;;;;16.77;8.53;;;;;;;-8.68;96.15;95676.22;5073253;28;20572;-66
2022/01/25 07:05:33;;;;;;;18.77;7.97;;;;;;;-8.75;95.47;95679.47;5071657;28;20176;-66
2022/01/25 07:07:58;;;;;;;20.63;9.10;;;;;;;-8.68;96.52;95665.53;5073107;28;20591;-61
2022/01/25 07:10:24;;;;;;;19.33;9.33;;;;;;;-8.69;95.01;95686.06;5072883;28;20728;-67
2022/01/25 07:12:50;;;;;;;19.07;7.93;;;;;;;-8.66;94.67;95684.44;5072415;28;20208;-66
2022/01/25 07:15:17;;;;;;;19.13;8.83;;;;;;;-8.62;94.95;95681.16;5071500;28;20207;-64
2022/01/25 07:17:53;;;;;;;17.20;9.23;;;;;;;-8.51;93.40;95696.00;5072856;28;20687;-62
2022/01/25 07:20:20;;;;;;;18.60;9.40;;;;;;;-8.55;92.81;95686.94;5071441;28;20187;-68
2022/01/25 07:22:47;;;;;;;15.70;9.03;;;;;;;-8.39;92.68;95676.34;5072027;28;20232;-61
2022/01/25 07:25:13;;;;;;;19.60;9.77;;;;;;;-8.26;92.03;95692.00;5071750;28;20204;-61
2022/01/25 07:27:38;;;;;;;16.50;8.93;;;;;;;-8.27;90.99;95700.19;5071287;28;20178;-60
2022/01/25 07:30:06;;;;;;;17.17;8.33;;;;;;;-8.14;91.72;95692.81;5072907;28;20651;-61
2022/01/25 07:32:38;;;;;;;15.97;9.00;;;;;;;-8.00;90.63;95700.28;5073983;28;20181;-61
2022/01/25 07:35:05;;;;;;;18.40;8.87;;;;;;;-8.06;90.60;95700.25;5072905;28;20217;-66
2022/01/25 07:37:31;;;;;;;18.17;8.63;;;;;;;-8.09;90.92;95686.28;5071071;28;20678;-64
2022/01/25 07:39:58;;;;;;;18.87;9.13;;;;;;;-8.04;89.95;95693.69;5071347;28;20181;-67
2022/01/25 07:42:23;;;;;;;17.90;9.10;;;;;;;-7.98;89.79;95696.16;5076897;23;20226;-64
2022/01/25 07:44:49;;;;;;;19.40;9.60;;;;;;;-7.78;89.69;95692.09;5072357;28;20190;-62
2022/01/25 07:47:14;;;;;;;16.50;8.17;;;;;;;-7.68;88.90;95701.16;5072649;28;20651;-66
2022/01/25 07:49:40;;;;;;;20.47;10.37;;;;;;;-7.60;88.26;95692.13;5072266;28;20209;-67
2022/01/25 07:52:36;;;;;;;17.47;9.07;;;;;;;-7.76;87.80;95700.34;5073374;28;20221;-67
2022/01/25 07:55:17;;;;;;;16.33;9.67;;;;;;;-7.55;87.83;95710.22;5069740;28;20204;-61
2022/01/25 07:57:43;;;;;;;19.27;10.40;;;;;;;-7.49;87.05;95720.09;5071715;28;20207;-65
2022/01/25 08:00:10;;;;;;;18.97;8.23;;;;;;;-7.41;87.30;95710.25;5073167;28;20176;-67
2022/01/25 08:02:36;;;;;;;19.47;9.03;;;;;;;-7.25;86.28;95720.13;5054683;28;20229;-67
2022/01/25 08:05:26;;;;;;;17.40;9.13;;;;;;;-6.89;85.77;95726.72;5072134;28;20185;-69
2022/01/25 08:07:55;;;;;;;20.13;9.33;;;;;;;-7.12;84.30;95738.22;5070391;28;20242;-61
2022/01/25 08:10:23;;;;;;;19.60;8.83;;;;;;;-7.32;85.18;95712.72;5070576;28;20183;-65
2022/01/25 08:12:49;;;;;;;16.83;8.63;;;;;;;-6.92;85.08;95734.13;5068655;28;20201;-67
2022/01/25 08:15:16;;;;;;;18.23;9.47;;;;;;;-6.98;84.34;95725.06;5068535;28;20235;-64
2022/01/25 08:17:43;;;;;;;22.40;9.90;;;;;;;-6.88;82.66;95746.47;5070241;28;20220;-68
2022/01/25 08:20:09;;;;;;;19.60;9.13;;;;;;;-6.90;83.06;95733.28;5070920;28;20178;-63
2022/01/25 08:22:35;;;;;;;17.90;9.47;;;;;;;-6.87;82.38;95730.81;5070296;28;20189;-64
2022/01/25 08:25:11;;;;;;;22.17;11.23;;;;;;;-6.72;82.10;95741.50;5071007;28;20656;-60
2022/01/25 08:27:37;;;;;;;23.87;10.67;;;;;;;-6.56;81.43;95750.53;5071714;28;20236;-65
2022/01/25 08:30:04;;;;;;;19.40;9.50;;;;;;;-6.78;82.78;95737.38;5070697;28;20179;-60
2022/01/25 08:32:29;;;;;;;14.83;7.97;;;;;;;-6.72;82.31;95731.59;5071789;28;20189;-67
2022/01/25 08:34:55;;;;;;;18.00;8.43;;;;;;;-6.32;81.14;95748.03;5077375;23;20234;-63
2022/01/25 08:37:20;;;;;;;20.83;10.87;;;;;;;-6.41;80.59;95748.03;5071725;28;20703;-66
2022/01/25 08:39:46;;;;;;;20.23;10.13;;;;;;;-6.15;80.03;95756.22;5072053;28;20186;-61
2022/01/25 08:42:12;;;;;;;21.03;9.37;;;;;;;-5.83;79.32;95756.09;5072255;28;20182;-63
2022/01/25 08:44:38;;;;;;;21.10;10.20;;;;;;;-5.83;78.14;95788.25;5070268;28;20211;-61
2022/01/25 08:47:08;;;;;;;21.30;9.40;;;;;;;-5.42;77.37;95787.22;5072184;28;20171;-62
2022/01/25 08:49:34;;;;;;;19.60;9.40;;;;;;;-5.19;75.26;95815.16;5070220;28;20272;-61
2022/01/25 08:52:00;;;;;;;18.27;9.30;;;;;;;-5.66;75.98;95777.44;5070638;28;20205;-65
2022/01/25 08:54:26;;;;;;;13.77;7.10;;;;;;;-5.45;75.09;95799.59;5070498;28;20523;-63
2022/01/25 08:56:53;;;;;;;19.37;9.13;;;;;;;-5.66;75.72;95767.53;5070088;28;20285;-62
2022/01/25 08:59:25;;;;;;;17.60;9.00;;;;;;;-5.58;75.48;95780.72;5070674;28;20241;-67
2022/01/25 09:01:51;;;;;;;21.53;9.57;;;;;;;-5.55;75.45;95773.25;5070206;28;20603;-66
2022/01/25 09:04:17;;;;;;;19.47;9.40;;;;;;;-5.31;74.79;95779.72;5071876;28;20202;-68
2022/01/25 09:06:47;;;;;;;20.43;8.83;;;;;;;-5.49;75.05;95765.78;5070603;28;20320;-62
2022/01/25 09:09:12;;;;;;;19.73;9.43;;;;;;;-5.45;74.94;95769.06;5069415;28;20216;-66
2022/01/25 09:11:39;;;;;;;15.53;8.10;;;;;;;-5.56;74.51;95781.53;5074589;28;20192;-62
2022/01/25 09:14:06;;;;;;;14.43;8.40;;;;;;;-5.51;74.34;95756.72;5073333;28;20215;-65
2022/01/25 09:16:33;;;;;;;19.87;9.33;;;;;;;-5.05;73.24;95777.09;5074648;28;20661;-62
2022/01/25 09:18:59;;;;;;;16.60;8.80;;;;;;;-5.30;73.20;95754.97;5074607;28;20211;-62
2022/01/25 09:21:25;;;;;;;20.90;8.90;;;;;;;-5.26;73.17;95766.50;5074998;28;20179;-65
2022/01/25 09:23:50;;;;;;;20.43;8.83;;;;;;;-5.15;72.60;95781.28;5074970;28;20204;-69
2022/01/25 09:26:17;;;;;;;16.10;8.77;;;;;;;-4.92;72.47;95786.06;5074698;28;20189;-65
2022/01/25 09:28:43;;;;;;;14.97;7.73;;;;;;;-4.77;70.42;95811.59;5075190;28;20209;-66
2022/01/25 09:31:08;;;;;;;17.03;8.17;;;;;;;-4.79;70.09;95822.34;5079354;23;20217;-61
2022/01/25 09:33:34;;;;;;;16.30;7.33;;;;;;;-4.81;69.96;95801.69;5074276;28;20306;-62
2022/01/25 09:35:59;;;;;;;15.77;8.17;;;;;;;-4.18;68.72;95845.00;5074836;28;20222;-61
2022/01/25 09:38:26;;;;;;;14.07;8.03;;;;;;;-4.56;69.01;95803.13;5074570;28;20212;-67
2022/01/25 09:40:52;;;;;;;16.43;8.23;;;;;;;-4.53;69.38;95796.50;5073162;28;20181;-61
2022/01/25 09:43:20;;;;;;;13.20;8.93;;;;;;;-3.89;67.99;95836.44;5074164;28;20238;-61
2022/01/25 09:45:47;;;;;;;17.10;8.97;;;;;;;-3.61;66.49;95865.09;5074419;28;20185;-68
2022/01/25 09:48:14;;;;;;;16.77;8.40;;;;;;;-3.38;65.86;95862.38;5073412;28;20322;-60
2022/01/25 09:50:46;;;;;;;18.37;8.13;;;;;;;-4.18;66.94;95816.03;5074497;28;20359;-64
2022/01/25 09:53:12;;;;;;;15.67;8.73;;;;;;;-4.16;68.19;95782.09;5074207;28;20573;-62
2022/01/25 09:55:40;;;;;;;17.97;9.50;;;;;;;-4.44;68.17;95780.69;5074289;28;20678;-66
2022/01/25 09:58:12;;;;;;;16.07;8.57;;;;;;;-4.18;67.98;95773.81;5074118;28;20227;-66
2022/01/25 10:00:39;;;;;;;15.87;8.73;;;;;;;-4.19;68.84;95744.91;5074153;28;20553;-61
2022/01/25 10:05:45;;;;;;;18.03;8.83;;;;;;;-3.51;66.77;95802.03;5074411;28;20271;-60
2022/01/25 10:08:24;;;;;;;20.70;9.97;;;;;;;-3.96;66.81;95782.69;5073951;28;20690;-65
2022/01/25 10:11:14;;;;;;;15.70;9.37;;;;;;;-4.02;66.70;95781.97;5074158;28;20544;-60
2022/01/25 10:13:45;;;;;;;16.90;9.00;;;;;;;-3.81;67.67;95757.69;5074143;28;20213;-67
2022/01/25 10:16:14;;;;;;;22.90;10.47;;;;;;;-3.05;66.87;95769.94;5074128;28;20298;-67
2022/01/25 10:18:50;;;;;;;13.40;7.30;;;;;;;-2.84;64.17;95839.25;5074030;28;20241;-66
2022/01/25 10:21:23;;;;;;;21.00;9.57;;;;;;;-2.08;64.08;95820.66;5071707;28;20187;-65
2022/01/25 10:24:01;;;;;;;14.83;8.83;;;;;;;-2.15;62.07;95861.44;5072331;28;20213;-61
2022/01/25 10:26:30;;;;;;;17.57;9.37;;;;;;;-1.76;61.27;95866.53;5074019;28;20184;-61
2022/01/25 10:28:57;;;;;;;18.30;9.13;;;;;;;-1.61;60.55;95882.06;5073459;28;20272;-65
2022/01/25 10:31:34;;;;;;;14.50;8.73;;;;;;;-1.57;60.21;95876.19;5073730;28;20277;-60
2022/01/25 10:33:59;;;;;;;18.87;9.77;;;;;;;-2.71;63.35;95777.72;5072024;28;20202;-61
2022/01/25 10:36:25;;;;;;;17.83;10.33;;;;;;;-2.85;64.06;95760.50;5073491;28;20234;-62
2022/01/25 10:38:54;;;;;;;17.83;9.97;;;;;;;-2.44;64.71;95741.63;5073189;28;20703;-61
2022/01/25 10:41:24;;;;;;;15.40;9.63;;;;;;;-1.24;64.36;95764.16;5073459;28;20264;-61
2022/01/25 10:43:52;;;;;;;18.13;9.63;;;;;;;-0.94;61.96;95813.38;5073073;28;20202;-61
2022/01/25 10:46:19;;;;;;;17.47;9.93;;;;;;;-1.94;61.39;95812.06;5073120;28;20183;-62
2022/01/25 10:49:00;;;;;;;16.80;9.93;;;;;;;-2.12;62.11;95772.53;5072833;28;20208;-62
2022/01/25 10:51:47;;;;;;;19.33;10.77;;;;;;;-1.74;62.17;95767.66;5072775;28;20240;-61
2022/01/25 10:54:13;;;;;;;17.93;9.23;;;;;;;-0.78;61.32;95793.88;5073046;28;20276;-62
2022/01/25 10:56:47;;;;;;;19.70;9.93;;;;;;;-0.34;60.03;95821.13;5073405;28;20668;-63
2022/01/25 10:59:22;;;;;;;20.93;9.60;;;;;;;0.34;58.14;95851.09;5072680;28;20206;-62
2022/01/25 11:01:51;;;;;;;20.93;9.87;;;;;;;-1.39;57.28;95824.31;5073866;28;20182;-65
2022/01/25 11:04:18;;;;;;;20.97;10.60;;;;;;;-1.95;60.53;95735.69;5072879;28;20199;-66
2022/01/25 11:06:45;;;;;;;17.70;9.23;;;;;;;-2.36;61.89;95697.50;5071811;28;20186;-65
2022/01/25 11:09:12;;;;;;;17.33;10.17;;;;;;;-2.46;62.75;95668.66;5072925;28;20198;-66
2022/01/25 11:11:51;;;;;;;18.23;9.73;;;;;;;-2.19;62.08;95698.81;5071339;28;20183;-65
2022/01/25 11:17:02;;;;;;;16.43;9.60;;;;;;;-2.31;63.47;95651.75;5012848;28;20238;-64
2022/01/25 11:19:27;;;;;;;15.23;7.70;;;;;;;-1.70;61.37;95714.41;5013076;28;20216;-66
2022/01/25 11:21:54;;;;;;;16.43;9.13;;;;;;;-1.56;61.31;95704.19;5012694;28;20187;-65
2022/01/25 11:24:21;;;;;;;17.13;10.13;;;;;;;-0.80;60.91;95717.41;5013022;28;20212;-65
2022/01/25 11:26:49;;;;;;;15.83;9.33;;;;;;;0.00;58.49;95783.66;5012901;28;20197;-65
2022/01/25 11:29:16;;;;;;;14.53;8.40;;;;;;;0.54;56.99;95828.88;5012871;28;20233;-65
2022/01/25 11:31:46;;;;;;;19.93;9.40;;;;;;;-0.70;57.05;95776.22;5012718;28;20692;-67
2022/01/25 11:34:14;;;;;;;19.47;8.83;;;;;;;-1.81;59.35;95711.34;5014673;28;20230;-60
2022/01/25 11:36:51;;;;;;;20.03;10.67;;;;;;;-2.28;61.44;95639.22;5011060;28;20201;-61
2022/01/25 11:39:20;;;;;;;18.03;9.83;;;;;;;-1.60;60.74;95676.84;5011437;28;20212;-60
2022/01/25 11:41:46;;;;;;;18.57;9.07;;;;;;;-0.93;60.25;95682.75;5010977;28;20659;-60
2022/01/25 11:44:16;;;;;;;18.83;10.17;;;;;;;-0.92;58.07;95733.50;5011238;28;20213;-61
2022/01/25 11:46:46;;;;;;;19.13;10.60;;;;;;;-1.44;58.44;95703.09;5012274;28;20182;-60
2022/01/25 11:49:22;;;;;;;19.27;9.60;;;;;;;-0.25;58.13;95723.50;5012787;28;20287;-59
2022/01/25 11:52:13;;;;;;;21.47;9.73;;;;;;;-0.36;56.69;95764.56;5012196;28;20603;-60
2022/01/25 11:54:41;;;;;;;20.63;10.53;;;;;;;-0.99;57.19;95712.84;5010756;28;20216;-60
2022/01/25 11:57:15;;;;;;;19.77;9.60;;;;;;;-1.34;57.96;95695.38;5012212;28;20189;-60
2022/01/25 11:59:48;;;;;;;17.13;9.00;;;;;;;-1.56;59.11;95664.31;5012323;28;20296;-61
2022/01/25 12:02:35;;;;;;;16.30;8.13;;;;;;;-2.21;60.92;95620.84;5011914;28;20173;-60
2022/01/25 12:05:10;;;;;;;19.70;8.70;;;;;;;-2.51;62.31;95575.81;5011875;28;20199;-61
2022/01/25 12:07:41;;;;;;;18.53;9.57;;;;;;;-2.37;62.23;95571.38;5011732;28;20172;-59
2022/01/25 12:10:45;;;;;;;18.27;9.50;;;;;;;-2.04;61.57;95593.09;5010656;28;20632;-59
2022/01/25 12:13:29;;;;;;;14.03;8.33;;;;;;;-2.39;62.40;95543.22;4970559;28;20755;-64
2022/01/25 12:16:27;;;;;;;19.40;8.43;;;;;;;-1.18;61.49;95601.91;4990735;28;20230;-64
2022/01/25 12:18:54;;;;;;;20.60;10.10;;;;;;;-0.47;58.41;95677.47;5010472;28;20232;-66
2022/01/25 12:21:53;;;;;;;14.53;8.17;;;;;;;-1.14;58.24;95660.84;5010393;28;20176;-66
2022/01/25 12:24:23;;;;;;;20.83;10.47;;;;;;;-1.25;78.27;95243.81;5012109;28;20224;-62
2022/01/25 12:27:18;;;;;;;16.30;9.17;;;;;;;-0.60;60.06;95732.72;5010157;28;20199;-65
2022/01/25 12:29:58;;;;;;;17.33;9.03;;;;;;;-0.93;59.49;95694.44;5011929;28;20248;-62
2022/01/25 12:32:35;;;;;;;15.70;8.50;;;;;;;-1.14;58.96;95689.94;5011478;28;20188;-61
2022/01/25 12:35:06;;;;;;;15.57;8.27;;;;;;;-0.49;59.24;95676.69;5011527;28;20193;-61
2022/01/25 12:37:45;;;;;;;16.20;9.40;;;;;;;-0.30;57.75;95710.31;5010129;28;20232;-61
2022/01/25 12:40:26;;;;;;;16.53;8.90;;;;;;;-0.07;57.41;95677.22;5011425;28;20177;-63
2022/01/25 12:43:04;;;;;;;20.23;8.83;;;;;;;-0.20;58.14;95644.25;5011362;28;20701;-62
2022/01/25 12:45:41;;;;;;;19.63;9.67;;;;;;;0.11;57.27;95661.72;5013582;28;20257;-64
2022/01/25 12:48:09;;;;;;;14.30;8.07;;;;;;;0.24;55.29;95713.03;5015663;28;20211;-61
2022/01/25 12:50:41;;;;;;;16.67;9.27;;;;;;;0.32;56.33;95656.13;5015358;28;20186;-62
2022/01/25 12:53:09;;;;;;;15.97;9.40;;;;;;;0.89;55.77;95691.06;5015487;28;20211;-63
2022/01/25 12:55:39;;;;;;;19.57;10.33;;;;;;;1.41;53.22;95741.16;5015437;28;20224;-62
2022/01/25 12:58:07;;;;;;;17.40;9.30;;;;;;;1.54;51.39;95767.44;5015280;28;20213;-62
2022/01/25 13:00:39;;;;;;;16.33;9.13;;;;;;;0.39;52.19;95729.25;5013922;28;20196;-62
2022/01/25 13:03:20;;;;;;;16.70;9.57;;;;;;;0.35;53.29;95686.00;5013653;28;20239;-62
2022/01/25 13:05:52;;;;;;;16.47;8.53;;;;;;;0.57;54.26;95668.69;5015009;28;20179;-62
2022/01/25 13:08:57;;;;;;;16.97;9.67;;;;;;;0.48;53.07;95686.50;5015335;28;20293;-61
2022/01/25 13:11:27;;;;;;;16.37;9.93;;;;;;;0.31;54.06;95651.13;5009207;28;20674;-63
2022/01/25 13:16:46;;;;;;;17.07;8.90;;;;;;;0.20;54.18;95638.97;5015272;28;20210;-61
2022/01/25 13:19:13;;;;;;;14.50;8.40;;;;;;;0.14;53.36;95659.16;5014815;28;20210;-63
2022/01/25 13:21:57;;;;;;;17.60;8.23;;;;;;;1.01;52.72;95682.38;5014750;28;20182;-61
2022/01/25 13:24:28;;;;;;;15.23;8.10;;;;;;;0.47;51.76;95714.84;5014681;28;20346;-63